Hubbell, Michigan
Current Conditions -  °F | °C
As of 6:09 AM on Tuesday 21 Oct 2014 (Local Time) from KCMX Reporting Station
Overcast Overcast  
Wind Chill:   Ceiling: 1500
Heat Index:   Visibility: 10mi
Dew Point: -1°   Wind: 7mph
Humidity: 76%   Direction: 40°NE
Pressure: 30.18"   Gusts: NA
Location:  47.17°N, 88.43°W
Report Text: KCMX 211009Z AUTO 04006KT 10SM OVC015 03/M01 A3018 RMK AO2 T00331006
Loading
Personal Weather Stations






























Interactive Weather Map
Tropical Storm Tracking
New forecast layout! Learn more

10-Day Weather Forecast

Advertisements
Track Severe Weather on mobile